createdAt,value
2019-01-25T00:01:54.737Z,29.50
2019-01-25T00:04:20.758Z,27.50
2019-01-25T00:06:46.675Z,28.60
2019-01-25T00:09:12.553Z,28.53
2019-01-25T00:11:38.469Z,27.13
2019-01-25T00:14:04.576Z,27.80
2019-01-25T00:16:30.658Z,28.90
2019-01-25T00:18:56.637Z,28.67
2019-01-25T00:21:22.749Z,29.00
2019-01-25T00:23:52.271Z,28.73
2019-01-25T00:26:18.406Z,27.10
2019-01-25T00:28:44.494Z,28.83
2019-01-25T00:31:10.369Z,27.70
2019-01-25T00:33:36.247Z,27.17
2019-01-25T00:36:02.261Z,26.63
2019-01-25T00:38:28.133Z,26.60
2019-01-25T00:40:54.019Z,26.07
2019-01-25T00:43:19.934Z,26.97
2019-01-25T00:45:45.902Z,24.73
2019-01-25T00:48:11.804Z,27.03
2019-01-25T00:50:37.702Z,26.03
2019-01-25T00:53:03.668Z,26.17
2019-01-25T00:55:29.541Z,25.80
2019-01-25T00:57:55.459Z,27.33
2019-01-25T01:00:23.592Z,26.70
2019-01-25T01:02:49.467Z,26.60
2019-01-25T01:05:15.553Z,25.87
2019-01-25T01:07:41.645Z,25.30
2019-01-25T01:10:13.980Z,26.53
2019-01-25T01:12:37.398Z,26.85
2019-01-25T01:15:06.960Z,25.30
2019-01-25T01:17:32.969Z,24.92
2019-01-25T01:20:00.231Z,24.82
2019-01-25T01:22:26.198Z,25.37
2019-01-25T01:24:52.176Z,25.67
2019-01-25T01:27:18.143Z,25.60
2019-01-25T01:29:44.070Z,24.20
2019-01-25T01:32:10.066Z,24.53
2019-01-25T01:34:35.971Z,23.83
2019-01-25T01:37:01.901Z,23.53
2019-01-25T01:39:27.794Z,24.77
2019-01-25T01:41:53.666Z,23.10
2019-01-25T01:44:19.554Z,23.13
2019-01-25T01:46:45.423Z,23.47
2019-01-25T01:49:11.436Z,23.50
2019-01-25T01:51:37.360Z,24.20
2019-01-25T01:54:03.315Z,23.80
2019-01-25T01:56:29.170Z,23.60
2019-01-25T01:58:55.046Z,24.03
2019-01-25T02:01:20.985Z,22.93
2019-01-25T02:03:46.848Z,22.90
2019-01-25T02:06:12.746Z,22.73
2019-01-25T02:08:38.713Z,22.23
2019-01-25T02:11:04.603Z,22.33
2019-01-25T02:13:30.477Z,23.33
2019-01-25T02:15:56.514Z,22.73
2019-01-25T02:18:22.526Z,22.13
2019-01-25T02:20:48.405Z,22.23
2019-01-25T02:23:14.300Z,22.60
2019-01-25T02:25:40.236Z,22.70
2019-01-25T02:28:06.122Z,23.00
2019-01-25T02:30:32.008Z,22.17
2019-01-25T02:32:58.015Z,22.23
2019-01-25T02:35:23.894Z,21.53
2019-01-25T02:37:49.778Z,22.20
2019-01-25T02:40:20.590Z,21.10
2019-01-25T02:42:46.699Z,21.42
2019-01-25T02:45:12.648Z,20.43
2019-01-25T02:47:38.518Z,20.57
2019-01-25T02:50:13.735Z,20.63
2019-01-25T02:52:39.625Z,20.82
2019-01-25T02:55:07.426Z,20.40
2019-01-25T02:57:33.293Z,21.68
2019-01-25T02:59:59.269Z,21.80
2019-01-25T03:02:25.140Z,21.70
2019-01-25T03:04:51.086Z,20.80
2019-01-25T03:07:16.981Z,20.93
2019-01-25T03:09:42.974Z,21.30
2019-01-25T03:12:10.160Z,20.43
2019-01-25T03:14:36.142Z,19.87
2019-01-25T03:17:02.040Z,19.73
2019-01-25T03:19:27.927Z,19.87
2019-01-25T03:21:53.838Z,19.57
2019-01-25T03:24:19.729Z,19.43
2019-01-25T03:26:45.776Z,20.17
2019-01-25T03:29:11.824Z,20.65
2019-01-25T03:31:38.148Z,18.87
2019-01-25T03:34:04.108Z,19.37
2019-01-25T03:36:30.009Z,19.43
2019-01-25T03:38:55.861Z,18.93
2019-01-25T03:41:21.753Z,19.27
2019-01-25T03:43:47.938Z,19.10
2019-01-25T03:46:13.823Z,19.85
2019-01-25T03:48:39.746Z,18.93
2019-01-25T03:51:05.594Z,19.70
2019-01-25T03:53:31.546Z,19.70
2019-01-25T03:55:57.409Z,18.03
2019-01-25T03:58:23.310Z,18.90
2019-01-25T04:00:49.256Z,18.27
2019-01-25T04:03:15.487Z,18.97
2019-01-25T04:05:41.358Z,17.85
2019-01-25T04:08:07.301Z,18.13
2019-01-25T04:10:34.312Z,18.77
2019-01-25T04:13:00.180Z,18.67
2019-01-25T04:15:29.211Z,18.23
2019-01-25T04:17:55.148Z,18.65
2019-01-25T04:20:22.069Z,18.13
2019-01-25T04:22:48.020Z,17.35
2019-01-25T04:25:16.037Z,17.23
2019-01-25T04:27:41.931Z,17.52
2019-01-25T04:30:11.294Z,16.87
2019-01-25T04:32:37.166Z,17.17
2019-01-25T04:35:05.295Z,17.97
2019-01-25T04:37:33.126Z,17.00
2019-01-25T04:39:58.996Z,16.07
2019-01-25T04:42:24.895Z,15.80
2019-01-25T04:44:50.985Z,18.37
2019-01-25T04:47:18.797Z,16.70
2019-01-25T04:49:44.692Z,16.90
2019-01-25T04:52:11.077Z,16.13
2019-01-25T04:54:36.996Z,16.48
2019-01-25T04:57:02.936Z,16.67
2019-01-25T04:59:28.905Z,16.57
2019-01-25T05:01:54.834Z,16.37
2019-01-25T05:04:20.698Z,16.53
2019-01-25T05:06:46.586Z,15.73
2019-01-25T05:09:12.611Z,15.63
2019-01-25T05:11:38.469Z,15.65
2019-01-25T05:14:04.340Z,16.63
2019-01-25T05:16:30.258Z,16.67
2019-01-25T05:18:56.132Z,16.10
2019-01-25T05:21:22.038Z,16.27
2019-01-25T05:23:48.102Z,15.83
2019-01-25T05:26:14.007Z,15.93
2019-01-25T05:28:39.863Z,15.93
2019-01-25T05:31:06.124Z,15.73
2019-01-25T05:33:32.031Z,15.75
2019-01-25T05:35:57.904Z,14.13
2019-01-25T05:38:23.886Z,14.90
2019-01-25T05:40:49.771Z,15.00
2019-01-25T05:43:15.667Z,15.27
2019-01-25T05:45:43.332Z,15.17
2019-01-25T05:48:10.609Z,15.13
2019-01-25T05:50:36.796Z,14.87
2019-01-25T05:53:02.697Z,15.00
2019-01-25T05:55:28.624Z,15.20
2019-01-25T05:57:59.076Z,15.87
2019-01-25T06:00:33.242Z,14.40
2019-01-25T06:03:04.541Z,14.23
2019-01-25T06:05:30.506Z,14.60
2019-01-25T06:07:56.506Z,15.40
2019-01-25T06:10:24.335Z,15.63
2019-01-25T06:12:54.780Z,14.28
2019-01-25T06:15:20.790Z,15.38
2019-01-25T06:17:46.869Z,14.83
2019-01-25T06:20:14.687Z,14.95
2019-01-25T06:22:40.633Z,14.75
2019-01-25T06:25:07.106Z,14.97
2019-01-25T06:27:39.413Z,14.58
2019-01-25T06:30:12.876Z,15.23
2019-01-25T06:32:38.974Z,14.80
2019-01-25T06:35:06.903Z,14.73
2019-01-25T06:37:34.989Z,15.43
2019-01-25T06:40:00.907Z,14.87
2019-01-25T06:42:26.794Z,14.53
2019-01-25T06:44:52.648Z,14.13
2019-01-25T06:47:18.535Z,14.40
2019-01-25T06:49:44.571Z,14.43
2019-01-25T06:52:10.456Z,13.50
2019-01-25T06:54:36.364Z,16.03
2019-01-25T06:57:04.184Z,15.27
2019-01-25T06:59:31.997Z,14.83
2019-01-25T07:01:59.910Z,14.40
2019-01-25T07:04:25.828Z,14.60
2019-01-25T07:06:51.740Z,15.03
2019-01-25T07:09:17.608Z,14.37
2019-01-25T07:11:43.710Z,13.70
2019-01-25T07:14:09.640Z,13.70
2019-01-25T07:16:35.542Z,13.63
2019-01-25T07:19:01.438Z,14.33
2019-01-25T07:21:27.384Z,13.20
2019-01-25T07:23:56.012Z,14.27
2019-01-25T07:26:21.938Z,14.47
2019-01-25T07:28:47.840Z,15.30
2019-01-25T07:31:13.827Z,15.67
2019-01-25T07:33:42.983Z,16.90
2019-01-25T07:36:08.881Z,19.67
2019-01-25T07:38:34.813Z,18.50
2019-01-25T07:41:00.783Z,16.70
2019-01-25T07:43:26.735Z,16.47
2019-01-25T07:45:52.588Z,16.47
2019-01-25T07:48:18.635Z,16.43
2019-01-25T07:50:44.640Z,17.23
2019-01-25T07:53:10.539Z,16.97
2019-01-25T07:55:36.420Z,16.20
2019-01-25T07:58:02.386Z,15.87
2019-01-25T08:00:28.267Z,16.27
2019-01-25T08:02:54.129Z,16.77
2019-01-25T08:05:20.017Z,15.87
2019-01-25T08:07:46.007Z,15.90
2019-01-25T08:10:18.771Z,15.90
2019-01-25T08:12:44.891Z,16.77
2019-01-25T08:15:14.493Z,15.63
2019-01-25T08:17:40.609Z,16.07
2019-01-25T08:20:09.737Z,15.90
2019-01-25T08:22:35.579Z,14.87
2019-01-25T08:25:01.640Z,15.00
2019-01-25T08:27:27.530Z,14.57
2019-01-25T08:29:53.476Z,14.17
2019-01-25T08:32:19.420Z,14.30
2019-01-25T08:34:45.326Z,14.57
2019-01-25T08:37:11.188Z,14.10
2019-01-25T08:39:37.228Z,14.13
2019-01-25T08:42:03.081Z,14.23
2019-01-25T08:44:28.971Z,13.63
2019-01-25T08:46:55.070Z,14.20
2019-01-25T08:49:20.970Z,13.87
2019-01-25T08:51:46.834Z,14.30
2019-01-25T08:54:14.226Z,14.77
2019-01-25T08:56:40.319Z,14.70
2019-01-25T08:59:06.202Z,15.33
2019-01-25T09:01:32.137Z,22.27
2019-01-25T09:03:58.162Z,15.93
2019-01-25T09:06:24.031Z,16.13
2019-01-25T09:08:49.918Z,16.03
2019-01-25T09:11:15.906Z,15.27
2019-01-25T09:13:41.779Z,14.33
2019-01-25T09:16:07.785Z,15.37
2019-01-25T09:18:33.839Z,13.70
2019-01-25T09:20:59.900Z,14.63
2019-01-25T09:23:25.877Z,14.43
2019-01-25T09:25:51.805Z,13.40
2019-01-25T09:28:17.739Z,14.33
2019-01-25T09:30:43.610Z,14.37
2019-01-25T09:33:09.492Z,13.70
2019-01-25T09:35:35.447Z,13.60
2019-01-25T09:38:01.404Z,14.17
2019-01-25T09:40:27.889Z,13.23
2019-01-25T09:42:54.035Z,14.73
2019-01-25T09:45:20.415Z,14.87
2019-01-25T09:47:46.298Z,15.00
2019-01-25T09:50:17.234Z,14.57
2019-01-25T09:52:43.343Z,15.77
2019-01-25T09:55:14.678Z,15.37
2019-01-25T09:57:40.654Z,15.33
2019-01-25T10:00:19.073Z,16.53
2019-01-25T10:02:44.953Z,15.53
2019-01-25T10:05:10.817Z,15.77
2019-01-25T10:07:36.714Z,16.23
2019-01-25T10:10:05.008Z,14.43
2019-01-25T10:12:36.068Z,14.83
2019-01-25T10:14:58.774Z,14.47
2019-01-25T10:17:24.650Z,13.20
2019-01-25T10:19:50.551Z,14.60
2019-01-25T10:22:16.450Z,14.67
2019-01-25T10:24:43.432Z,15.70
2019-01-25T10:27:09.295Z,14.93
2019-01-25T10:29:35.196Z,12.43
2019-01-25T10:32:01.089Z,10.60
2019-01-25T10:34:27.040Z,10.97
2019-01-25T10:36:52.895Z,11.50
2019-01-25T10:39:18.800Z,10.50
2019-01-25T10:41:44.684Z,10.10
2019-01-25T10:44:10.516Z,10.27
2019-01-25T10:46:36.440Z,9.80
2019-01-25T10:49:02.367Z,9.97
2019-01-25T10:51:28.293Z,10.00
2019-01-25T10:53:54.190Z,9.87
2019-01-25T10:56:20.086Z,9.30
2019-01-25T10:58:45.986Z,9.30
2019-01-25T11:01:13.206Z,7.87
2019-01-25T11:03:39.076Z,8.30
2019-01-25T11:06:04.948Z,7.90
2019-01-25T11:08:30.866Z,7.33
2019-01-25T11:10:57.673Z,6.67
2019-01-25T11:13:23.552Z,6.43
2019-01-25T11:15:49.537Z,6.00
2019-01-25T11:18:15.843Z,8.07
2019-01-25T11:20:41.716Z,6.17
2019-01-25T11:23:07.615Z,6.23
2019-01-25T11:25:39.060Z,7.63
2019-01-25T11:28:05.051Z,7.57
2019-01-25T11:30:30.938Z,7.77
2019-01-25T11:32:56.824Z,8.03
2019-01-25T11:35:22.735Z,7.70
2019-01-25T11:37:52.667Z,8.37
2019-01-25T11:40:27.062Z,8.40
2019-01-25T11:42:53.791Z,8.77
2019-01-25T11:45:19.831Z,8.83
2019-01-25T11:47:45.780Z,8.63
2019-01-25T11:50:15.083Z,9.23
2019-01-25T11:52:41.026Z,9.53
2019-01-25T11:55:08.064Z,9.57
2019-01-25T11:57:33.971Z,9.10
2019-01-25T11:59:59.805Z,9.27
2019-01-25T12:02:25.813Z,8.93
2019-01-25T12:04:51.722Z,8.83
2019-01-25T12:07:17.624Z,9.47
2019-01-25T12:09:43.511Z,10.17
2019-01-25T12:12:09.520Z,8.27
2019-01-25T12:14:35.467Z,9.50
2019-01-25T12:17:01.324Z,9.33
2019-01-25T12:19:27.203Z,9.70
2019-01-25T12:21:53.107Z,10.33
2019-01-25T12:24:19.057Z,9.73
2019-01-25T12:26:45.107Z,9.47
2019-01-25T12:29:11.214Z,10.07
2019-01-25T12:31:37.120Z,10.70
2019-01-25T12:34:03.145Z,10.73
2019-01-25T12:36:28.980Z,10.57
2019-01-25T12:38:54.977Z,9.57
2019-01-25T12:41:20.831Z,10.03
2019-01-25T12:43:46.836Z,9.30
2019-01-25T12:46:12.893Z,10.93
2019-01-25T12:48:38.796Z,11.10
2019-01-25T12:51:08.597Z,11.43
2019-01-25T12:53:34.510Z,10.87
2019-01-25T12:56:00.388Z,11.27
2019-01-25T12:58:26.275Z,11.20
2019-01-25T13:00:52.175Z,11.40
2019-01-25T13:03:18.217Z,10.73
2019-01-25T13:05:45.636Z,11.53
2019-01-25T13:08:11.660Z,11.73
2019-01-25T13:10:37.578Z,11.00
2019-01-25T13:13:03.539Z,11.50
2019-01-25T13:15:29.427Z,11.53
2019-01-25T13:17:55.398Z,12.00
2019-01-25T13:20:28.786Z,11.37
2019-01-25T13:22:54.680Z,11.30
2019-01-25T13:25:20.644Z,11.73
2019-01-25T13:27:46.630Z,11.50
2019-01-25T13:30:21.612Z,11.90
2019-01-25T13:32:47.532Z,11.40
2019-01-25T13:35:13.553Z,11.97
2019-01-25T13:37:39.431Z,11.50
2019-01-25T13:40:08.888Z,12.27
2019-01-25T13:42:34.761Z,11.80
2019-01-25T13:45:00.666Z,12.13
2019-01-25T13:47:26.573Z,11.73
2019-01-25T13:49:52.538Z,11.53
2019-01-25T13:52:18.425Z,12.43
2019-01-25T13:54:44.344Z,11.90
2019-01-25T13:57:10.291Z,11.47
2019-01-25T13:59:36.174Z,12.40
2019-01-25T14:02:02.061Z,13.50
2019-01-25T14:04:27.988Z,12.23
2019-01-25T14:06:53.883Z,12.47
2019-01-25T14:09:19.869Z,12.13
2019-01-25T14:11:45.849Z,12.80
2019-01-25T14:14:11.892Z,13.60
2019-01-25T14:16:37.718Z,12.33
2019-01-25T14:19:03.694Z,13.47
2019-01-25T14:21:29.615Z,13.67
2019-01-25T14:23:56.458Z,12.83
2019-01-25T14:26:22.331Z,12.87
2019-01-25T14:28:48.278Z,12.80
2019-01-25T14:31:14.188Z,12.10
2019-01-25T14:33:40.097Z,12.77
2019-01-25T14:36:06.008Z,12.27
2019-01-25T14:38:32.095Z,11.97
2019-01-25T14:40:57.964Z,12.83
2019-01-25T14:43:23.858Z,13.00
2019-01-25T14:45:49.851Z,13.87
2019-01-25T14:48:15.762Z,13.33
2019-01-25T14:50:41.620Z,14.00
2019-01-25T14:53:07.526Z,13.27
2019-01-25T14:55:36.010Z,13.30
2019-01-25T14:58:01.991Z,13.80
2019-01-25T15:00:27.864Z,13.07
2019-01-25T15:02:53.878Z,13.53
2019-01-25T15:05:19.792Z,13.73
2019-01-25T15:07:45.951Z,14.00
2019-01-25T15:10:16.760Z,14.10
2019-01-25T15:12:43.017Z,14.50
2019-01-25T15:15:11.030Z,12.40
2019-01-25T15:17:36.916Z,12.77
2019-01-25T15:20:06.833Z,13.67
2019-01-25T15:22:32.746Z,13.33
2019-01-25T15:24:58.785Z,13.57
2019-01-25T15:27:24.687Z,13.40
2019-01-25T15:29:50.622Z,12.87
2019-01-25T15:32:16.604Z,13.43
2019-01-25T15:34:42.606Z,13.23
2019-01-25T15:37:08.675Z,12.77
2019-01-25T15:39:34.688Z,12.80
2019-01-25T15:42:00.630Z,12.80
2019-01-25T15:44:26.521Z,12.97
2019-01-25T15:46:52.380Z,13.43
2019-01-25T15:49:18.315Z,13.27
2019-01-25T15:51:44.292Z,12.90
2019-01-25T15:54:10.176Z,13.23
2019-01-25T15:56:36.302Z,13.60
2019-01-25T15:59:02.193Z,12.93
2019-01-25T16:01:28.095Z,13.90
2019-01-25T16:03:54.035Z,14.57
2019-01-25T16:06:19.928Z,15.23
2019-01-25T16:08:45.794Z,15.50
2019-01-25T16:11:11.958Z,15.80
2019-01-25T16:13:37.971Z,17.10
2019-01-25T16:16:03.895Z,16.87
2019-01-25T16:18:29.745Z,15.40
2019-01-25T16:20:55.642Z,17.37
2019-01-25T16:23:21.525Z,17.03
2019-01-25T16:25:47.398Z,16.63
2019-01-25T16:28:13.407Z,17.23
2019-01-25T16:30:39.391Z,16.70
2019-01-25T16:33:05.258Z,16.40
2019-01-25T16:35:31.164Z,17.00
2019-01-25T16:37:57.132Z,16.83
2019-01-25T16:40:25.708Z,16.63
2019-01-25T16:42:51.682Z,17.50
2019-01-25T16:45:21.003Z,16.33
2019-01-25T16:47:47.047Z,16.80
2019-01-25T16:50:12.912Z,16.67
2019-01-25T16:52:38.849Z,16.47
2019-01-25T16:55:07.948Z,16.70
2019-01-25T16:57:33.821Z,17.50
2019-01-25T16:59:59.724Z,17.17
2019-01-25T17:02:25.731Z,16.63
2019-01-25T17:04:51.614Z,16.53
2019-01-25T17:07:17.484Z,17.37
2019-01-25T17:09:43.506Z,17.63
2019-01-25T17:12:09.382Z,17.97
2019-01-25T17:14:35.358Z,18.33
2019-01-25T17:17:01.200Z,18.70
2019-01-25T17:19:27.094Z,19.30
2019-01-25T17:21:52.976Z,19.83
2019-01-25T17:24:18.836Z,18.07
2019-01-25T17:26:44.717Z,16.70
2019-01-25T17:29:10.606Z,15.77
2019-01-25T17:31:36.492Z,16.80
2019-01-25T17:34:02.354Z,17.70
2019-01-25T17:36:28.367Z,19.10
2019-01-25T17:38:54.178Z,20.37
2019-01-25T17:41:20.162Z,19.23
2019-01-25T17:43:50.013Z,19.80
2019-01-25T17:46:15.932Z,19.57
2019-01-25T17:48:41.834Z,18.03
2019-01-25T17:51:07.735Z,17.13
2019-01-25T17:53:33.630Z,18.10
2019-01-25T17:55:59.639Z,18.90
2019-01-25T17:58:25.743Z,20.20
2019-01-25T18:00:53.292Z,19.73
2019-01-25T18:03:19.176Z,19.47
2019-01-25T18:05:45.034Z,21.13
2019-01-25T18:08:10.930Z,22.37
2019-01-25T18:10:36.778Z,22.63
2019-01-25T18:13:02.805Z,22.27
2019-01-25T18:15:28.802Z,23.00
2019-01-25T18:17:54.721Z,23.07
2019-01-25T18:20:21.925Z,23.87
2019-01-25T18:22:47.811Z,25.53
2019-01-25T18:25:23.119Z,24.07
2019-01-25T18:27:52.922Z,25.53
2019-01-25T18:30:26.174Z,24.87
2019-01-25T18:32:52.093Z,25.33
2019-01-25T18:35:18.257Z,27.03
2019-01-25T18:37:44.117Z,27.73
2019-01-25T18:40:10.858Z,28.30
2019-01-25T18:42:37.198Z,28.23
2019-01-25T18:45:06.337Z,29.00
2019-01-25T18:47:32.254Z,29.17
2019-01-25T18:49:58.116Z,29.37
2019-01-25T18:52:24.021Z,29.50
2019-01-25T18:54:49.967Z,29.23
2019-01-25T18:57:15.834Z,28.53
2019-01-25T18:59:41.736Z,30.60
2019-01-25T19:02:07.749Z,29.27
2019-01-25T19:04:33.750Z,30.13
2019-01-25T19:06:59.637Z,28.43
2019-01-25T19:09:25.567Z,27.70
2019-01-25T19:11:51.568Z,28.83
2019-01-25T19:14:17.445Z,29.73
2019-01-25T19:16:43.437Z,28.67
2019-01-25T19:19:09.397Z,27.50
2019-01-25T19:21:35.276Z,26.33
2019-01-25T19:24:01.167Z,27.33
2019-01-25T19:26:27.442Z,26.00
2019-01-25T19:28:53.820Z,26.47
2019-01-25T19:31:20.016Z,26.90
2019-01-25T19:33:45.985Z,26.67
2019-01-25T19:36:11.856Z,30.00
2019-01-25T19:38:37.931Z,30.63
2019-01-25T19:41:03.832Z,32.67
2019-01-25T19:43:29.750Z,29.37
2019-01-25T19:45:55.591Z,28.63
2019-01-25T19:48:21.529Z,28.67
2019-01-25T19:50:47.738Z,26.80
2019-01-25T19:53:13.645Z,28.77
2019-01-25T19:55:39.622Z,27.53
2019-01-25T19:58:08.795Z,27.80
2019-01-25T20:00:40.693Z,27.40
2019-01-25T20:03:06.612Z,26.97
2019-01-25T20:05:32.493Z,26.67
2019-01-25T20:07:58.465Z,28.73
2019-01-25T20:10:24.348Z,29.20
2019-01-25T20:12:50.331Z,31.60
2019-01-25T20:15:19.483Z,33.13
2019-01-25T20:17:45.657Z,28.00
2019-01-25T20:20:24.347Z,29.43
2019-01-25T20:22:50.209Z,28.40
2019-01-25T20:25:16.091Z,27.83
2019-01-25T20:27:42.007Z,27.40
2019-01-25T20:30:17.484Z,27.93
2019-01-25T20:32:43.385Z,28.50
2019-01-25T20:35:12.797Z,28.80
2019-01-25T20:37:38.844Z,28.70
2019-01-25T20:40:08.570Z,28.97
2019-01-25T20:42:34.434Z,28.43
2019-01-25T20:45:00.355Z,25.80
2019-01-25T20:47:26.364Z,27.07
2019-01-25T20:49:52.260Z,28.07
2019-01-25T20:52:18.143Z,25.87
2019-01-25T20:54:44.061Z,25.87
2019-01-25T20:57:09.923Z,26.73
2019-01-25T20:59:36.168Z,26.63
2019-01-25T21:02:02.064Z,25.23
2019-01-25T21:04:27.932Z,24.43
2019-01-25T21:06:53.823Z,24.73
2019-01-25T21:09:19.716Z,24.17
2019-01-25T21:11:45.580Z,23.43
2019-01-25T21:14:11.457Z,23.20
2019-01-25T21:16:37.370Z,23.70
2019-01-25T21:19:03.251Z,22.17
2019-01-25T21:21:30.794Z,22.20
2019-01-25T21:23:56.679Z,22.60
2019-01-25T21:26:22.531Z,21.87
2019-01-25T21:28:48.496Z,23.90
2019-01-25T21:31:14.368Z,22.13
2019-01-25T21:33:40.226Z,23.77
2019-01-25T21:36:06.121Z,24.43
2019-01-25T21:38:32.059Z,24.17
2019-01-25T21:40:57.934Z,22.37
2019-01-25T21:43:23.815Z,23.37
2019-01-25T21:45:49.800Z,24.23
2019-01-25T21:48:15.773Z,25.50
2019-01-25T21:50:42.339Z,24.77
2019-01-25T21:53:08.279Z,25.33
2019-01-25T21:55:34.146Z,24.47
2019-01-25T21:58:05.433Z,24.80
2019-01-25T22:00:30.936Z,25.17
2019-01-25T22:02:56.819Z,23.60
2019-01-25T22:05:23.592Z,23.53
2019-01-25T22:07:49.517Z,24.37
2019-01-25T22:10:21.592Z,24.20
2019-01-25T22:12:47.538Z,23.20
2019-01-25T22:15:15.607Z,23.80
2019-01-25T22:17:41.622Z,23.37
2019-01-25T22:20:20.151Z,23.07
2019-01-25T22:22:46.113Z,22.67
2019-01-25T22:25:12.050Z,22.53
2019-01-25T22:27:37.957Z,21.87
2019-01-25T22:30:10.392Z,21.30
2019-01-25T22:32:36.238Z,21.37
2019-01-25T22:35:02.741Z,22.47
2019-01-25T22:37:28.606Z,21.47
2019-01-25T22:39:54.494Z,22.13
2019-01-25T22:42:20.445Z,20.37
2019-01-25T22:44:46.316Z,19.90
2019-01-25T22:47:12.241Z,20.73
2019-01-25T22:49:38.117Z,22.87
2019-01-25T22:52:04.140Z,22.13
2019-01-25T22:54:30.036Z,21.63
2019-01-25T22:56:55.939Z,21.30
2019-01-25T22:59:22.551Z,20.60
2019-01-25T23:01:48.438Z,20.35
2019-01-25T23:04:29.752Z,20.73
2019-01-25T23:06:55.736Z,20.57
2019-01-25T23:09:27.534Z,21.07
2019-01-25T23:11:53.471Z,20.27
2019-01-25T23:14:19.344Z,20.53
2019-01-25T23:16:45.210Z,20.47
2019-01-25T23:19:11.110Z,20.00
2019-01-25T23:21:36.962Z,20.43
2019-01-25T23:24:03.141Z,19.30
2019-01-25T23:26:29.100Z,18.82
2019-01-25T23:28:54.969Z,18.80
2019-01-25T23:31:20.837Z,18.10
2019-01-25T23:33:46.718Z,18.00
2019-01-25T23:36:12.578Z,17.63
2019-01-25T23:38:38.509Z,17.43
2019-01-25T23:41:04.360Z,18.23
2019-01-25T23:43:30.226Z,16.00
2019-01-25T23:45:56.215Z,17.00
2019-01-25T23:48:22.143Z,16.47
2019-01-25T23:50:48.060Z,15.77
2019-01-25T23:53:14.049Z,15.57
2019-01-25T23:55:39.937Z,17.17
2019-01-25T23:58:05.813Z,16.77
